Time,TemperatureF,DewpointF,PressureIn,WindDirection,WindDirectionDegrees,WindSpeedMPH,WindSpeedGustMPH,Humidity,HourlyPrecipIn,Conditions,Clouds,dailyrainin,SoftwareType,DateUTC
2013-03-01 00:00:00,32.6,32.1,28.93,NE,43,2.0,7.0,98,0.00,,,0.00,Wunderground v.1.15,2013-03-01 05:00:00,
2013-03-01 00:05:00,32.6,32.1,28.94,NE,46,3.0,7.0,98,0.00,,,0.00,Wunderground v.1.15,2013-03-01 05:05:00,
2013-03-01 00:10:00,32.6,32.1,28.93,NE,36,4.0,6.0,98,0.00,,,0.00,Wunderground v.1.15,2013-03-01 05:10:00,
2013-03-01 00:15:00,32.5,32.0,28.94,NE,38,5.0,6.0,98,0.00,,,0.00,Wunderground v.1.15,2013-03-01 05:15:00,
2013-03-01 00:20:00,32.4,31.9,28.94,NE,46,4.0,5.0,98,0.00,,,0.00,Wunderground v.1.15,2013-03-01 05:20:00,
2013-03-01 00:30:00,32.4,31.9,28.94,NE,48,4.0,4.0,98,0.00,,,0.00,Wunderground v.1.15,2013-03-01 05:30:00,
2013-03-01 00:35:00,32.4,31.9,28.94,NE,48,4.0,5.0,98,0.00,,,0.00,Wunderground v.1.15,2013-03-01 05:35:00,
2013-03-01 00:44:00,32.2,31.7,28.94,NE,49,5.0,7.0,98,0.00,,,0.00,Wunderground v.1.15,2013-03-01 05:44:00,
2013-03-01 00:49:00,32.0,31.5,28.94,NE,48,6.0,6.0,98,0.00,,,0.00,Wunderground v.1.15,2013-03-01 05:49:00,
2013-03-01 00:54:00,31.9,31.4,28.95,NE,55,7.0,7.0,98,0.00,,,0.00,Wunderground v.1.15,2013-03-01 05:54:00,
2013-03-01 00:59:00,31.8,31.3,28.95,ENE,57,6.0,6.0,98,0.00,,,0.00,Wunderground v.1.15,2013-03-01 05:59:00,
2013-03-01 01:05:00,31.7,31.2,28.95,ENE,61,5.0,7.0,98,0.00,,,0.00,Wunderground v.1.15,2013-03-01 06:05:00,
2013-03-01 01:10:00,31.7,31.2,28.95,NE,46,5.0,7.0,98,0.00,,,0.00,Wunderground v.1.15,2013-03-01 06:10:00,
2013-03-01 01:19:00,31.6,31.1,28.96,NE,43,6.0,6.0,98,0.00,,,0.00,Wunderground v.1.15,2013-03-01 06:19:00,
2013-03-01 01:24:00,31.6,31.1,28.96,NE,39,6.0,7.0,98,0.00,,,0.00,Wunderground v.1.15,2013-03-01 06:24:00,
2013-03-01 01:29:00,31.6,31.1,28.96,NE,37,5.0,5.0,98,0.00,,,0.00,Wunderground v.1.15,2013-03-01 06:29:00,
2013-03-01 01:35:00,31.5,31.0,28.96,NE,51,5.0,7.0,98,0.00,,,0.00,Wunderground v.1.15,2013-03-01 06:35:00,
2013-03-01 01:40:00,31.5,31.0,28.96,NE,44,5.0,7.0,98,0.00,,,0.00,Wunderground v.1.15,2013-03-01 06:40:00,
2013-03-01 01:45:00,31.5,31.0,28.96,NE,44,6.0,7.0,98,0.00,,,0.00,Wunderground v.1.15,2013-03-01 06:45:00,
2013-03-01 01:54:00,31.5,30.7,28.96,NE,51,5.0,7.0,97,0.00,,,0.00,Wunderground v.1.15,2013-03-01 06:54:00,
2013-03-01 01:59:00,31.5,30.7,28.96,NE,43,5.0,7.0,97,0.00,,,0.00,Wunderground v.1.15,2013-03-01 06:59:00,
2013-03-01 02:04:00,31.5,30.7,28.96,NE,51,5.0,7.0,97,0.00,,,0.00,Wunderground v.1.15,2013-03-01 07:04:00,
2013-03-01 02:10:00,31.5,30.7,28.96,ENE,71,6.0,7.0,97,0.00,,,0.00,Wunderground v.1.15,2013-03-01 07:10:00,
2013-03-01 02:15:00,31.4,30.6,28.96,ENE,60,6.0,7.0,97,0.00,,,0.00,Wunderground v.1.15,2013-03-01 07:15:00,
2013-03-01 02:20:00,31.5,30.7,28.96,NE,48,6.0,7.0,97,0.00,,,0.00,Wunderground v.1.15,2013-03-01 07:20:00,
2013-03-01 02:29:00,31.5,30.7,28.97,NE,43,7.0,8.0,97,0.00,,,0.00,Wunderground v.1.15,2013-03-01 07:29:00,
2013-03-01 02:34:00,31.5,30.7,28.96,NE,50,6.0,8.0,97,0.00,,,0.00,Wunderground v.1.15,2013-03-01 07:34:00,
2013-03-01 02:40:00,31.5,30.7,28.96,NNE,30,6.0,6.0,97,0.00,,,0.00,Wunderground v.1.15,2013-03-01 07:40:00,
2013-03-01 02:45:00,31.5,30.7,28.97,NE,52,6.0,7.0,97,0.00,,,0.00,Wunderground v.1.15,2013-03-01 07:45:00,
2013-03-01 02:50:00,31.5,30.5,28.96,ENE,57,6.0,6.0,96,0.00,,,0.00,Wunderground v.1.15,2013-03-01 07:50:00,
2013-03-01 02:55:00,31.5,30.5,28.97,NE,48,6.0,7.0,96,0.00,,,0.00,Wunderground v.1.15,2013-03-01 07:55:00,
2013-03-01 03:00:00,31.5,30.5,28.97,NE,45,6.0,6.0,96,0.00,,,0.00,Wunderground v.1.15,2013-03-01 08:00:00,
2013-03-01 03:05:00,31.5,30.5,28.97,ENE,57,7.0,7.0,96,0.00,,,0.00,Wunderground v.1.15,2013-03-01 08:05:00,
2013-03-01 03:15:00,31.5,30.5,28.97,NE,43,5.0,7.0,96,0.00,,,0.00,Wunderground v.1.15,2013-03-01 08:15:00,
2013-03-01 03:20:00,31.5,30.5,28.97,NE,39,4.0,11.0,96,0.00,,,0.00,Wunderground v.1.15,2013-03-01 08:20:00,
2013-03-01 03:25:00,31.5,30.5,28.97,NE,48,4.0,11.0,96,0.00,,,0.00,Wunderground v.1.15,2013-03-01 08:25:00,
2013-03-01 03:30:00,31.4,30.4,28.97,NE,42,5.0,7.0,96,0.00,,,0.00,Wunderground v.1.15,2013-03-01 08:30:00,
2013-03-01 03:35:00,31.4,30.4,28.97,NE,37,5.0,7.0,96,0.00,,,0.00,Wunderground v.1.15,2013-03-01 08:35:00,
2013-03-01 03:40:00,31.3,30.3,28.98,NNE,30,5.0,5.0,96,0.00,,,0.00,Wunderground v.1.15,2013-03-01 08:40:00,
2013-03-01 03:49:00,31.2,30.2,28.98,NE,36,5.0,5.0,96,0.00,,,0.00,Wunderground v.1.15,2013-03-01 08:49:00,
2013-03-01 03:54:00,31.2,30.2,28.98,NE,42,4.0,7.0,96,0.00,,,0.00,Wunderground v.1.15,2013-03-01 08:54:00,
2013-03-01 03:59:00,31.2,30.2,28.98,NE,44,4.0,7.0,96,0.00,,,0.00,Wunderground v.1.15,2013-03-01 08:59:00,
2013-03-01 04:04:00,31.1,30.1,28.98,NNE,24,5.0,7.0,96,0.00,,,0.00,Wunderground v.1.15,2013-03-01 09:04:00,
2013-03-01 04:09:00,31.1,30.1,28.98,NE,38,6.0,7.0,96,0.00,,,0.00,Wunderground v.1.15,2013-03-01 09:09:00,
2013-03-01 04:19:00,31.0,30.0,28.99,NE,35,5.0,7.0,96,0.00,,,0.00,Wunderground v.1.15,2013-03-01 09:19:00,
2013-03-01 04:24:00,31.0,30.0,28.99,NE,42,5.0,7.0,96,0.00,,,0.00,Wunderground v.1.15,2013-03-01 09:24:00,
2013-03-01 04:29:00,30.9,29.9,28.99,NNE,31,6.0,6.0,96,0.00,,,0.00,Wunderground v.1.15,2013-03-01 09:29:00,
2013-03-01 04:34:00,30.8,29.8,28.99,NE,42,6.0,7.0,96,0.00,,,0.00,Wunderground v.1.15,2013-03-01 09:34:00,
2013-03-01 04:39:00,30.8,29.8,28.99,NE,34,5.0,7.0,96,0.00,,,0.00,Wunderground v.1.15,2013-03-01 09:39:00,
2013-03-01 04:44:00,30.8,29.8,28.99,NE,36,5.0,7.0,96,0.00,,,0.00,Wunderground v.1.15,2013-03-01 09:44:00,
2013-03-01 04:54:00,30.8,29.8,29.00,NE,34,5.0,7.0,96,0.00,,,0.00,Wunderground v.1.15,2013-03-01 09:54:00,
2013-03-01 04:59:00,30.8,29.8,29.00,NE,40,5.0,7.0,96,0.00,,,0.00,Wunderground v.1.15,2013-03-01 09:59:00,
2013-03-01 05:04:00,30.8,29.8,29.00,NE,36,6.0,7.0,96,0.00,,,0.00,Wunderground v.1.15,2013-03-01 10:04:00,
2013-03-01 05:09:00,30.8,29.8,29.00,NE,37,7.0,9.0,96,0.00,,,0.00,Wunderground v.1.15,2013-03-01 10:09:00,
2013-03-01 05:14:00,30.8,29.8,29.00,NE,40,6.0,9.0,96,0.00,,,0.00,Wunderground v.1.15,2013-03-01 10:14:00,
2013-03-01 05:24:00,30.9,29.6,29.00,NE,47,7.0,7.0,95,0.00,,,0.00,Wunderground v.1.15,2013-03-01 10:24:00,
2013-03-01 05:29:00,30.9,29.6,29.00,NNE,33,6.0,6.0,95,0.00,,,0.00,Wunderground v.1.15,2013-03-01 10:29:00,
2013-03-01 05:34:00,30.9,29.6,29.00,NE,39,5.0,8.0,95,0.00,,,0.00,Wunderground v.1.15,2013-03-01 10:34:00,
2013-03-01 05:39:00,31.0,29.7,29.01,NE,49,5.0,11.0,95,0.00,,,0.00,Wunderground v.1.15,2013-03-01 10:39:00,
2013-03-01 05:45:00,31.0,29.7,29.01,NE,34,5.0,11.0,95,0.00,,,0.00,Wunderground v.1.15,2013-03-01 10:45:00,
2013-03-01 05:50:00,31.0,29.7,29.01,NE,36,5.0,7.0,95,0.00,,,0.00,Wunderground v.1.15,2013-03-01 10:50:00,
2013-03-01 05:59:00,31.0,29.7,29.01,NE,40,5.0,7.0,95,0.00,,,0.00,Wunderground v.1.15,2013-03-01 10:59:00,
2013-03-01 06:04:00,31.0,29.7,29.01,NE,42,5.0,7.0,95,0.00,,,0.00,Wunderground v.1.15,2013-03-01 11:04:00,
2013-03-01 06:09:00,31.0,29.7,29.01,NE,44,5.0,7.0,95,0.00,,,0.00,Wunderground v.1.15,2013-03-01 11:09:00,
2013-03-01 06:14:00,31.0,29.7,29.01,NE,36,5.0,7.0,95,0.00,,,0.00,Wunderground v.1.15,2013-03-01 11:14:00,
2013-03-01 06:19:00,31.0,29.7,29.01,NNE,31,5.0,7.0,95,0.00,,,0.00,Wunderground v.1.15,2013-03-01 11:19:00,
2013-03-01 06:29:00,30.9,29.4,29.02,NE,44,6.0,7.0,94,0.00,,,0.00,Wunderground v.1.15,2013-03-01 11:29:00,
2013-03-01 06:34:00,30.9,29.4,29.02,NE,45,5.0,7.0,94,0.00,,,0.00,Wunderground v.1.15,2013-03-01 11:34:00,
2013-03-01 06:39:00,31.0,29.5,29.02,NE,50,5.0,5.0,94,0.00,,,0.00,Wunderground v.1.15,2013-03-01 11:39:00,
2013-03-01 06:45:00,31.0,29.5,29.02,NE,49,5.0,7.0,94,0.00,,,0.00,Wunderground v.1.15,2013-03-01 11:45:00,
2013-03-01 06:50:00,31.0,31.0,29.02,NE,42,6.0,6.0,100,0.00,,,0.00,Wunderground v.1.15,2013-03-01 11:50:00,
2013-03-01 06:55:00,31.0,29.5,29.03,NE,45,6.0,7.0,94,0.00,,,0.00,Wunderground v.1.15,2013-03-01 11:55:00,
2013-03-01 07:04:00,31.0,29.5,29.03,NE,42,5.0,7.0,94,0.00,,,0.00,Wunderground v.1.15,2013-03-01 12:04:00,
2013-03-01 07:09:00,30.9,29.4,29.03,NE,48,5.0,7.0,94,0.00,,,0.00,Wunderground v.1.15,2013-03-01 12:09:00,
2013-03-01 07:14:00,30.9,29.4,29.03,NE,53,5.0,8.0,94,0.00,,,0.00,Wunderground v.1.15,2013-03-01 12:14:00,
2013-03-01 07:19:00,30.8,29.0,29.03,NE,48,6.0,7.0,93,0.00,,,0.00,Wunderground v.1.15,2013-03-01 12:19:00,
2013-03-01 07:24:00,30.8,29.0,29.03,NE,51,5.0,8.0,93,0.00,,,0.00,Wunderground v.1.15,2013-03-01 12:24:00,
2013-03-01 07:34:00,30.9,29.1,29.04,NE,50,5.0,7.0,93,0.00,,,0.00,Wunderground v.1.15,2013-03-01 12:34:00,
2013-03-01 07:39:00,30.9,29.1,29.04,NE,47,5.0,5.0,93,0.00,,,0.00,Wunderground v.1.15,2013-03-01 12:39:00,
2013-03-01 07:44:00,30.9,29.1,29.05,NE,43,5.0,7.0,93,0.00,,,0.00,Wunderground v.1.15,2013-03-01 12:44:00,
2013-03-01 07:49:00,31.0,29.2,29.05,NE,51,5.0,7.0,93,0.00,,,0.00,Wunderground v.1.15,2013-03-01 12:49:00,
2013-03-01 07:54:00,31.0,29.2,29.05,NE,50,5.0,7.0,93,0.00,,,0.00,Wunderground v.1.15,2013-03-01 12:54:00,
2013-03-01 07:59:00,31.0,29.2,29.05,NE,51,5.0,7.0,93,0.00,,,0.00,Wunderground v.1.15,2013-03-01 12:59:00,
2013-03-01 08:09:00,31.0,29.2,29.05,NE,49,6.0,7.0,93,0.00,,,0.00,Wunderground v.1.15,2013-03-01 13:09:00,
2013-03-01 08:14:00,30.9,29.1,29.05,NE,44,5.0,7.0,93,0.00,,,0.00,Wunderground v.1.15,2013-03-01 13:14:00,
2013-03-01 08:19:00,30.9,29.1,29.05,East,82,5.0,8.0,93,0.00,,,0.00,Wunderground v.1.15,2013-03-01 13:19:00,
2013-03-01 08:24:00,30.8,29.0,29.05,NE,55,6.0,8.0,93,0.00,,,0.00,Wunderground v.1.15,2013-03-01 13:24:00,
2013-03-01 08:29:00,30.7,28.9,29.05,ENE,63,7.0,7.0,93,0.00,,,0.00,Wunderground v.1.15,2013-03-01 13:29:00,
2013-03-01 08:39:00,30.5,29.0,29.05,NE,54,7.0,7.0,94,0.00,,,0.00,Wunderground v.1.15,2013-03-01 13:39:00,
2013-03-01 08:44:00,30.4,28.9,29.06,NE,53,7.0,8.0,94,0.00,,,0.00,Wunderground v.1.15,2013-03-01 13:44:00,
2013-03-01 08:49:00,30.4,28.9,29.06,NE,45,6.0,7.0,94,0.00,,,0.00,Wunderground v.1.15,2013-03-01 13:49:00,
2013-03-01 08:54:00,30.3,28.8,29.06,NE,42,6.0,7.0,94,0.00,,,0.00,Wunderground v.1.15,2013-03-01 13:54:00,
2013-03-01 08:59:00,30.2,28.7,29.06,NE,42,7.0,7.0,94,0.00,,,0.00,Wunderground v.1.15,2013-03-01 13:59:00,
2013-03-01 09:04:00,30.2,28.7,29.06,ENE,58,7.0,7.0,94,0.00,,,0.00,Wunderground v.1.15,2013-03-01 14:04:00,
2013-03-01 09:10:00,30.2,28.7,29.06,NE,46,7.0,8.0,94,0.00,,,0.00,Wunderground v.1.15,2013-03-01 14:10:00,
2013-03-01 09:15:00,30.1,28.6,29.06,NE,42,7.0,12.0,94,0.00,,,0.00,Wunderground v.1.15,2013-03-01 14:15:00,
2013-03-01 09:20:00,29.9,28.1,29.06,NE,53,8.0,8.0,93,0.00,,,0.00,Wunderground v.1.15,2013-03-01 14:20:00,
2013-03-01 09:25:00,29.8,28.0,29.06,ENE,61,8.0,8.0,93,0.00,,,0.00,Wunderground v.1.15,2013-03-01 14:25:00,
2013-03-01 09:30:00,29.8,28.0,29.06,NE,49,7.0,7.0,93,0.00,,,0.00,Wunderground v.1.15,2013-03-01 14:30:00,
2013-03-01 09:35:00,29.7,27.9,29.07,NE,34,7.0,7.0,93,0.00,,,0.00,Wunderground v.1.15,2013-03-01 14:35:00,
2013-03-01 09:45:00,29.5,27.7,29.07,NE,52,6.0,8.0,93,0.00,,,0.00,Wunderground v.1.15,2013-03-01 14:45:00,
2013-03-01 09:50:00,29.5,27.7,29.07,NE,48,7.0,8.0,93,0.00,,,0.00,Wunderground v.1.15,2013-03-01 14:50:00,
2013-03-01 09:55:00,29.4,27.6,29.07,NE,42,7.0,9.0,93,0.00,,,0.00,Wunderground v.1.15,2013-03-01 14:55:00,
2013-03-01 10:00:00,29.3,27.5,29.07,ENE,62,8.0,10.0,93,0.00,,,0.00,Wunderground v.1.15,2013-03-01 15:00:00,
2013-03-01 10:05:00,29.3,27.5,29.07,NE,51,8.0,10.0,93,0.00,,,0.00,Wunderground v.1.15,2013-03-01 15:05:00,
2013-03-01 10:14:00,29.4,27.6,29.07,NE,45,6.0,7.0,93,0.00,,,0.00,Wunderground v.1.15,2013-03-01 15:14:00,
2013-03-01 10:19:00,29.5,27.7,29.07,NE,46,6.0,7.0,93,0.00,,,0.00,Wunderground v.1.15,2013-03-01 15:19:00,
2013-03-01 10:24:00,29.6,27.8,29.07,NE,43,6.0,7.0,93,0.00,,,0.00,Wunderground v.1.15,2013-03-01 15:24:00,
2013-03-01 10:29:00,29.5,27.7,29.07,NNE,31,7.0,7.0,93,0.00,,,0.00,Wunderground v.1.15,2013-03-01 15:29:00,
2013-03-01 10:34:00,29.4,27.6,29.07,NE,41,7.0,8.0,93,0.00,,,0.00,Wunderground v.1.15,2013-03-01 15:34:00,
2013-03-01 10:39:00,29.3,27.5,29.07,NE,34,7.0,9.0,93,0.00,,,0.00,Wunderground v.1.15,2013-03-01 15:39:00,
2013-03-01 10:49:00,29.1,27.3,29.08,NNE,22,8.0,12.0,93,0.00,,,0.00,Wunderground v.1.15,2013-03-01 15:49:00,
2013-03-01 10:54:00,28.9,27.1,29.08,NNE,31,8.0,12.0,93,0.00,,,0.00,Wunderground v.1.15,2013-03-01 15:54:00,
2013-03-01 10:59:00,28.8,27.0,29.08,NE,38,9.0,9.0,93,0.00,,,0.00,Wunderground v.1.15,2013-03-01 15:59:00,
2013-03-01 11:04:00,28.8,27.0,29.08,NNE,28,9.0,11.0,93,0.00,,,0.00,Wunderground v.1.15,2013-03-01 16:04:00,
2013-03-01 11:09:00,28.8,27.0,29.08,NE,34,9.0,9.0,93,0.00,,,0.00,Wunderground v.1.15,2013-03-01 16:09:00,
2013-03-01 11:19:00,29.0,27.2,29.08,NNE,26,8.0,8.0,93,0.00,,,0.00,Wunderground v.1.15,2013-03-01 16:19:00,
2013-03-01 11:24:00,29.0,27.2,29.08,NNE,20,8.0,8.0,93,0.00,,,0.00,Wunderground v.1.15,2013-03-01 16:24:00,
2013-03-01 11:29:00,29.2,27.4,29.08,NE,34,7.0,7.0,93,0.00,,,0.00,Wunderground v.1.15,2013-03-01 16:29:00,
2013-03-01 11:34:00,29.5,27.7,29.08,NNE,30,7.0,7.0,93,0.00,,,0.00,Wunderground v.1.15,2013-03-01 16:34:00,
2013-03-01 11:39:00,29.6,27.8,29.08,NNE,30,7.0,7.0,93,0.00,,,0.00,Wunderground v.1.15,2013-03-01 16:39:00,
2013-03-01 11:44:00,29.6,27.6,29.08,NNE,23,8.0,14.0,92,0.00,,,0.00,Wunderground v.1.15,2013-03-01 16:44:00,
2013-03-01 11:54:00,29.4,27.1,29.08,NE,51,9.0,10.0,91,0.00,,,0.00,Wunderground v.1.15,2013-03-01 16:54:00,
2013-03-01 11:59:00,29.3,26.7,29.08,NNE,26,8.0,8.0,90,0.00,,,0.00,Wunderground v.1.15,2013-03-01 16:59:00,
2013-03-01 12:04:00,29.6,27.3,29.08,NNE,28,8.0,9.0,91,0.00,,,0.00,Wunderground v.1.15,2013-03-01 17:04:00,
2013-03-01 12:09:00,29.6,27.0,29.08,NNE,26,8.0,8.0,90,0.00,,,0.00,Wunderground v.1.15,2013-03-01 17:09:00,
2013-03-01 12:14:00,29.8,27.2,29.08,NNE,22,8.0,9.0,90,0.00,,,0.00,Wunderground v.1.15,2013-03-01 17:14:00,
2013-03-01 12:24:00,29.6,26.8,29.09,NNE,33,9.0,12.0,89,0.00,,,0.00,Wunderground v.1.15,2013-03-01 17:24:00,
2013-03-01 12:29:00,29.7,26.9,29.09,NNE,28,9.0,9.0,89,0.00,,,0.00,Wunderground v.1.15,2013-03-01 17:29:00,
2013-03-01 12:34:00,29.6,26.5,29.09,NNE,31,9.0,9.0,88,0.00,,,0.00,Wunderground v.1.15,2013-03-01 17:34:00,
2013-03-01 12:39:00,29.7,26.6,29.09,NE,38,9.0,9.0,88,0.00,,,0.00,Wunderground v.1.15,2013-03-01 17:39:00,
2013-03-01 12:44:00,30.1,27.3,29.09,NE,37,8.0,9.0,89,0.00,,,0.00,Wunderground v.1.15,2013-03-01 17:44:00,
2013-03-01 12:49:00,30.2,27.1,29.08,NE,37,7.0,7.0,88,0.00,,,0.00,Wunderground v.1.15,2013-03-01 17:49:00,
2013-03-01 12:55:00,30.1,26.7,29.09,NNE,32,9.0,12.0,87,0.00,,,0.00,Wunderground v.1.15,2013-03-01 17:55:00,
2013-03-01 13:00:00,29.8,26.4,29.09,NE,40,10.0,11.0,87,0.00,,,0.00,Wunderground v.1.15,2013-03-01 18:00:00,
2013-03-01 13:05:00,29.6,26.2,29.09,NE,42,10.0,11.0,87,0.00,,,0.00,Wunderground v.1.15,2013-03-01 18:05:00,
2013-03-01 13:10:00,29.7,26.3,29.08,NE,42,9.0,9.0,87,0.00,,,0.00,Wunderground v.1.15,2013-03-01 18:10:00,
2013-03-01 13:15:00,29.9,26.5,29.08,NNE,29,8.0,9.0,87,0.00,,,0.00,Wunderground v.1.15,2013-03-01 18:15:00,
2013-03-01 13:20:00,29.7,26.0,29.08,NE,47,9.0,11.0,86,0.00,,,0.00,Wunderground v.1.15,2013-03-01 18:20:00,
2013-03-01 13:29:00,29.7,26.0,29.08,NE,45,10.0,10.0,86,0.00,,,0.00,Wunderground v.1.15,2013-03-01 18:29:00,
2013-03-01 13:34:00,29.9,26.2,29.08,ENE,61,9.0,10.0,86,0.00,,,0.00,Wunderground v.1.15,2013-03-01 18:34:00,
2013-03-01 13:39:00,29.7,25.7,29.08,NNE,24,9.0,9.0,85,0.00,,,0.00,Wunderground v.1.15,2013-03-01 18:39:00,
2013-03-01 13:44:00,29.7,25.7,29.08,NE,49,10.0,11.0,85,0.00,,,0.00,Wunderground v.1.15,2013-03-01 18:44:00,
2013-03-01 13:49:00,29.3,25.4,29.08,NNE,30,9.0,9.0,85,0.00,,,0.00,Wunderground v.1.15,2013-03-01 18:49:00,
2013-03-01 13:54:00,29.4,25.7,29.08,NNE,30,9.0,11.0,86,0.00,,,0.00,Wunderground v.1.15,2013-03-01 18:54:00,
2013-03-01 13:59:00,29.3,25.4,29.08,NE,34,9.0,11.0,85,0.00,,,0.00,Wunderground v.1.15,2013-03-01 18:59:00,
2013-03-01 14:04:00,29.1,25.2,29.08,NE,38,9.0,11.0,85,0.00,,,0.00,Wunderground v.1.15,2013-03-01 19:04:00,
2013-03-01 14:09:00,29.0,25.1,29.08,NE,38,10.0,10.0,85,0.00,,,0.00,Wunderground v.1.15,2013-03-01 19:09:00,
2013-03-01 14:14:00,29.2,25.3,29.08,NNE,26,9.0,10.0,85,0.00,,,0.00,Wunderground v.1.15,2013-03-01 19:14:00,
2013-03-01 14:19:00,29.4,25.2,29.08,North,9,9.0,9.0,84,0.00,,,0.00,Wunderground v.1.15,2013-03-01 19:19:00,
2013-03-01 14:24:00,29.5,25.3,29.09,NNE,26,9.0,9.0,84,0.00,,,0.00,Wunderground v.1.15,2013-03-01 19:24:00,
2013-03-01 14:34:00,29.4,24.9,29.08,NNE,24,9.0,11.0,83,0.00,,,0.00,Wunderground v.1.15,2013-03-01 19:34:00,
2013-03-01 14:39:00,29.6,25.4,29.09,NNE,29,8.0,11.0,84,0.00,,,0.00,Wunderground v.1.15,2013-03-01 19:39:00,
2013-03-01 14:44:00,29.6,25.4,29.09,NE,34,8.0,11.0,84,0.00,,,0.00,Wunderground v.1.15,2013-03-01 19:44:00,
2013-03-01 14:49:00,29.3,24.5,29.09,NNE,30,9.0,9.0,82,0.00,,,0.00,Wunderground v.1.15,2013-03-01 19:49:00,
2013-03-01 14:54:00,29.3,24.8,29.09,NNE,31,10.0,10.0,83,0.00,,,0.00,Wunderground v.1.15,2013-03-01 19:54:00,
2013-03-01 15:04:00,29.5,25.0,29.09,NNE,33,8.0,11.0,83,0.00,,,0.00,Wunderground v.1.15,2013-03-01 20:04:00,
2013-03-01 15:09:00,29.1,24.3,29.09,NNE,28,9.0,9.0,82,0.00,,,0.00,Wunderground v.1.15,2013-03-01 20:09:00,
2013-03-01 15:14:00,28.9,24.1,29.09,NNE,30,10.0,10.0,82,0.00,,,0.00,Wunderground v.1.15,2013-03-01 20:14:00,
2013-03-01 15:19:00,28.8,24.0,29.09,NNE,32,9.0,9.0,82,0.00,,,0.00,Wunderground v.1.15,2013-03-01 20:19:00,
2013-03-01 15:24:00,28.9,24.4,29.09,NNE,29,8.0,10.0,83,0.00,,,0.00,Wunderground v.1.15,2013-03-01 20:24:00,
2013-03-01 15:29:00,28.8,24.0,29.09,NE,34,8.0,8.0,82,0.00,,,0.00,Wunderground v.1.15,2013-03-01 20:29:00,
2013-03-01 15:39:00,28.9,24.1,29.09,NE,36,8.0,8.0,82,0.00,,,0.00,Wunderground v.1.15,2013-03-01 20:39:00,
2013-03-01 15:44:00,28.8,24.0,29.09,ENE,59,9.0,11.0,82,0.00,,,0.00,Wunderground v.1.15,2013-03-01 20:44:00,
2013-03-01 15:49:00,28.7,23.9,29.09,NNE,30,9.0,10.0,82,0.00,,,0.00,Wunderground v.1.15,2013-03-01 20:49:00,
2013-03-01 15:54:00,28.8,24.0,29.10,NNE,25,9.0,12.0,82,0.00,,,0.00,Wunderground v.1.15,2013-03-01 20:54:00,
2013-03-01 15:59:00,28.8,24.0,29.10,NE,48,9.0,10.0,82,0.00,,,0.00,Wunderground v.1.15,2013-03-01 20:59:00,
2013-03-01 16:09:00,28.7,23.6,29.10,NNE,24,9.0,10.0,81,0.00,,,0.00,Wunderground v.1.15,2013-03-01 21:09:00,
2013-03-01 16:14:00,28.8,24.0,29.10,NNE,17,9.0,10.0,82,0.00,,,0.00,Wunderground v.1.15,2013-03-01 21:14:00,
2013-03-01 16:19:00,28.9,24.1,29.10,NNE,14,8.0,8.0,82,0.00,,,0.00,Wunderground v.1.15,2013-03-01 21:19:00,
2013-03-01 16:24:00,29.0,23.9,29.10,NNE,12,7.0,8.0,81,0.00,,,0.00,Wunderground v.1.15,2013-03-01 21:24:00,
2013-03-01 16:29:00,29.1,24.0,29.10,NNE,17,7.0,8.0,81,0.00,,,0.00,Wunderground v.1.15,2013-03-01 21:29:00,
2013-03-01 16:34:00,29.0,23.9,29.10,North,351,8.0,8.0,81,0.00,,,0.00,Wunderground v.1.15,2013-03-01 21:34:00,
2013-03-01 16:44:00,29.2,24.4,29.10,NNE,23,6.0,8.0,82,0.00,,,0.00,Wunderground v.1.15,2013-03-01 21:44:00,
2013-03-01 16:49:00,29.3,24.2,29.09,NNE,30,7.0,8.0,81,0.00,,,0.00,Wunderground v.1.15,2013-03-01 21:49:00,
2013-03-01 16:54:00,29.3,24.2,29.10,NNE,26,7.0,10.0,81,0.00,,,0.00,Wunderground v.1.15,2013-03-01 21:54:00,
2013-03-01 16:59:00,29.4,24.3,29.10,North,355,7.0,7.0,81,0.00,,,0.00,Wunderground v.1.15,2013-03-01 21:59:00,
2013-03-01 17:04:00,29.4,24.3,29.10,NNE,32,6.0,7.0,81,0.00,,,0.00,Wunderground v.1.15,2013-03-01 22:04:00,
2013-03-01 17:14:00,29.4,24.3,29.10,NNE,27,5.0,7.0,81,0.00,,,0.00,Wunderground v.1.15,2013-03-01 22:14:00,
2013-03-01 17:19:00,29.5,24.7,29.10,NNE,26,5.0,7.0,82,0.00,,,0.00,Wunderground v.1.15,2013-03-01 22:19:00,
2013-03-01 17:24:00,29.6,24.8,29.10,North,350,4.0,7.0,82,0.00,,,0.00,Wunderground v.1.15,2013-03-01 22:24:00,
2013-03-01 17:29:00,29.6,24.8,29.11,North,355,4.0,7.0,82,0.00,,,0.00,Wunderground v.1.15,2013-03-01 22:29:00,
2013-03-01 17:34:00,29.4,24.6,29.11,North,360,4.0,7.0,82,0.00,,,0.00,Wunderground v.1.15,2013-03-01 22:34:00,
2013-03-01 17:39:00,29.4,24.6,29.11,North,349,4.0,4.0,82,0.00,,,0.00,Wunderground v.1.15,2013-03-01 22:39:00,
2013-03-01 17:49:00,29.4,24.6,29.11,North,5,5.0,5.0,82,0.00,,,0.00,Wunderground v.1.15,2013-03-01 22:49:00,
2013-03-01 17:54:00,29.3,24.5,29.11,North,355,5.0,7.0,82,0.00,,,0.00,Wunderground v.1.15,2013-03-01 22:54:00,
2013-03-01 17:59:00,29.3,24.8,29.11,NNW,346,5.0,5.0,83,0.00,,,0.00,Wunderground v.1.15,2013-03-01 22:59:00,
2013-03-01 18:04:00,29.2,24.7,29.11,North,349,5.0,7.0,83,0.00,,,0.00,Wunderground v.1.15,2013-03-01 23:04:00,
2013-03-01 18:09:00,29.2,24.7,29.11,North,355,4.0,7.0,83,0.00,,,0.00,Wunderground v.1.15,2013-03-01 23:09:00,
2013-03-01 18:19:00,29.2,24.7,29.11,NNW,348,4.0,7.0,83,0.00,,,0.00,Wunderground v.1.15,2013-03-01 23:19:00,
2013-03-01 18:24:00,29.2,24.7,29.11,North,355,5.0,7.0,83,0.00,,,0.00,Wunderground v.1.15,2013-03-01 23:24:00,
2013-03-01 18:29:00,29.2,24.7,29.11,North,355,5.0,5.0,83,0.00,,,0.00,Wunderground v.1.15,2013-03-01 23:29:00,
2013-03-01 18:34:00,29.2,24.7,29.11,North,355,5.0,7.0,83,0.00,,,0.00,Wunderground v.1.15,2013-03-01 23:34:00,
2013-03-01 18:39:00,29.1,24.6,29.11,North,355,5.0,5.0,83,0.00,,,0.00,Wunderground v.1.15,2013-03-01 23:39:00,
2013-03-01 18:44:00,29.1,24.6,29.12,North,355,4.0,7.0,83,0.00,,,0.00,Wunderground v.1.15,2013-03-01 23:44:00,
2013-03-01 18:54:00,29.2,24.7,29.12,North,11,4.0,7.0,83,0.00,,,0.00,Wunderground v.1.15,2013-03-01 23:54:00,
2013-03-01 18:59:00,29.2,24.7,29.12,North,9,5.0,5.0,83,0.00,,,0.00,Wunderground v.1.15,2013-03-01 23:59:00,
2013-03-01 19:04:00,29.3,24.8,29.12,North,360,5.0,8.0,83,0.00,,,0.00,Wunderground v.1.15,2013-03-02 00:04:00,
2013-03-01 19:09:00,29.3,24.8,29.12,North,5,5.0,7.0,83,0.00,,,0.00,Wunderground v.1.15,2013-03-02 00:09:00,
2013-03-01 19:14:00,29.4,24.9,29.12,North,5,5.0,7.0,83,0.00,,,0.00,Wunderground v.1.15,2013-03-02 00:14:00,
2013-03-01 19:24:00,29.4,24.6,29.11,NNE,20,6.0,7.0,82,0.00,,,0.00,Wunderground v.1.15,2013-03-02 00:24:00,
2013-03-01 19:29:00,29.4,24.6,29.12,NNE,20,5.0,7.0,82,0.00,,,0.00,Wunderground v.1.15,2013-03-02 00:29:00,
2013-03-01 19:34:00,29.4,24.9,29.12,North,9,5.0,7.0,83,0.00,,,0.00,Wunderground v.1.15,2013-03-02 00:34:00,
2013-03-01 19:39:00,29.5,25.0,29.12,North,360,4.0,4.0,83,0.00,,,0.00,Wunderground v.1.15,2013-03-02 00:39:00,
2013-03-01 19:44:00,29.6,25.1,29.12,North,360,4.0,6.0,83,0.00,,,0.00,Wunderground v.1.15,2013-03-02 00:44:00,
2013-03-01 19:49:00,29.6,25.1,29.12,North,360,4.0,7.0,83,0.00,,,0.00,Wunderground v.1.15,2013-03-02 00:49:00,
2013-03-01 19:59:00,29.6,25.1,29.12,NNE,24,4.0,8.0,83,0.00,,,0.00,Wunderground v.1.15,2013-03-02 00:59:00,
2013-03-01 20:04:00,29.6,25.1,29.12,NNE,19,5.0,8.0,83,0.00,,,0.00,Wunderground v.1.15,2013-03-02 01:04:00,
2013-03-01 20:09:00,29.7,25.2,29.12,NNE,24,6.0,7.0,83,0.00,,,0.00,Wunderground v.1.15,2013-03-02 01:09:00,
2013-03-01 20:14:00,29.7,25.2,29.12,NNE,24,6.0,7.0,83,0.00,,,0.00,Wunderground v.1.15,2013-03-02 01:14:00,
2013-03-01 20:19:00,29.7,25.2,29.12,NNE,30,7.0,7.0,83,0.00,,,0.00,Wunderground v.1.15,2013-03-02 01:19:00,
2013-03-01 20:25:00,29.6,25.1,29.12,NNE,27,7.0,7.0,83,0.00,,,0.00,Wunderground v.1.15,2013-03-02 01:25:00,
2013-03-01 20:30:00,29.6,25.1,29.12,NNE,28,7.0,7.0,83,0.00,,,0.00,Wunderground v.1.15,2013-03-02 01:30:00,
2013-03-01 20:35:00,29.6,25.1,29.12,NE,35,7.0,8.0,83,0.00,,,0.00,Wunderground v.1.15,2013-03-02 01:35:00,
2013-03-01 20:40:00,29.6,25.1,29.12,ENE,64,6.0,6.0,83,0.00,,,0.00,Wunderground v.1.15,2013-03-02 01:40:00,
2013-03-01 20:45:00,29.6,25.1,29.12,NNE,33,6.0,7.0,83,0.00,,,0.00,Wunderground v.1.15,2013-03-02 01:45:00,
2013-03-01 20:50:00,29.5,25.0,29.12,NNE,22,5.0,9.0,83,0.00,,,0.00,Wunderground v.1.15,2013-03-02 01:50:00,
2013-03-01 20:55:00,29.4,24.6,29.12,NNE,26,6.0,9.0,82,0.00,,,0.00,Wunderground v.1.15,2013-03-02 01:55:00,
2013-03-01 21:00:00,29.3,24.5,29.12,NE,40,8.0,8.0,82,0.00,,,0.00,Wunderground v.1.15,2013-03-02 02:00:00,
2013-03-01 21:05:00,29.3,24.5,29.12,NE,36,8.0,8.0,82,0.00,,,0.00,Wunderground v.1.15,2013-03-02 02:05:00,
2013-03-01 21:10:00,29.3,24.5,29.12,NNE,24,7.0,8.0,82,0.00,,,0.00,Wunderground v.1.15,2013-03-02 02:10:00,
2013-03-01 21:15:00,29.2,24.7,29.13,NE,51,7.0,8.0,83,0.00,,,0.00,Wunderground v.1.15,2013-03-02 02:15:00,
2013-03-01 21:20:00,29.1,24.6,29.13,NNE,32,8.0,9.0,83,0.00,,,0.00,Wunderground v.1.15,2013-03-02 02:20:00,
2013-03-01 21:25:00,29.0,24.5,29.13,NE,47,8.0,9.0,83,0.00,,,0.00,Wunderground v.1.15,2013-03-02 02:25:00,
2013-03-01 21:34:00,29.0,24.8,29.13,NNE,23,7.0,8.0,84,0.00,,,0.00,Wunderground v.1.15,2013-03-02 02:34:00,
2013-03-01 21:39:00,28.8,24.6,29.13,ENE,70,8.0,8.0,84,0.00,,,0.00,Wunderground v.1.15,2013-03-02 02:39:00,
2013-03-01 21:44:00,28.7,24.5,29.13,NE,36,8.0,8.0,84,0.00,,,0.00,Wunderground v.1.15,2013-03-02 02:44:00,
2013-03-01 21:49:00,28.6,24.4,29.13,NE,36,7.0,8.0,84,0.00,,,0.00,Wunderground v.1.15,2013-03-02 02:49:00,
2013-03-01 21:54:00,28.4,24.5,29.13,ENE,62,8.0,13.0,85,0.00,,,0.00,Wunderground v.1.15,2013-03-02 02:54:00,
2013-03-01 22:04:00,28.1,24.2,29.13,NE,36,8.0,10.0,85,0.00,,,0.00,Wunderground v.1.15,2013-03-02 03:04:00,
2013-03-01 22:09:00,28.0,26.0,29.13,NNE,32,8.0,8.0,92,0.00,,,0.00,Wunderground v.1.15,2013-03-02 03:09:00,
2013-03-01 22:14:00,28.0,24.4,29.13,NNE,19,8.0,11.0,86,0.00,,,0.00,Wunderground v.1.15,2013-03-02 03:14:00,
2013-03-01 22:19:00,27.9,24.3,29.13,North,5,8.0,8.0,86,0.00,,,0.00,Wunderground v.1.15,2013-03-02 03:19:00,
2013-03-01 22:24:00,27.8,24.4,29.13,NNE,15,9.0,9.0,87,0.00,,,0.00,Wunderground v.1.15,2013-03-02 03:24:00,
2013-03-01 22:29:00,27.7,24.3,29.13,NNE,21,8.0,8.0,87,0.00,,,0.00,Wunderground v.1.15,2013-03-02 03:29:00,
2013-03-01 22:39:00,27.5,24.4,29.13,NNE,29,8.0,10.0,88,0.00,,,0.00,Wunderground v.1.15,2013-03-02 03:39:00,
2013-03-01 22:44:00,27.5,24.4,29.13,North,5,7.0,10.0,88,0.00,,,0.00,Wunderground v.1.15,2013-03-02 03:44:00,
2013-03-01 22:49:00,27.5,24.4,29.13,NNE,19,7.0,8.0,88,0.00,,,0.00,Wunderground v.1.15,2013-03-02 03:49:00,
2013-03-01 22:54:00,27.4,24.3,29.13,NNE,13,7.0,8.0,88,0.00,,,0.00,Wunderground v.1.15,2013-03-02 03:54:00,
2013-03-01 22:59:00,27.3,24.2,29.14,NNE,21,7.0,9.0,88,0.00,,,0.00,Wunderground v.1.15,2013-03-02 03:59:00,
2013-03-01 23:09:00,27.2,24.4,29.14,NNE,19,7.0,7.0,89,0.00,,,0.00,Wunderground v.1.15,2013-03-02 04:09:00,
2013-03-01 23:14:00,27.1,24.3,29.14,North,360,7.0,7.0,89,0.00,,,0.00,Wunderground v.1.15,2013-03-02 04:14:00,
2013-03-01 23:19:00,27.1,24.3,29.14,NNE,16,7.0,8.0,89,0.00,,,0.00,Wunderground v.1.15,2013-03-02 04:19:00,
2013-03-01 23:24:00,27.1,24.3,29.14,NNE,22,7.0,8.0,89,0.00,,,0.00,Wunderground v.1.15,2013-03-02 04:24:00,
2013-03-01 23:29:00,27.0,24.2,29.14,NNE,32,7.0,7.0,89,0.00,,,0.00,Wunderground v.1.15,2013-03-02 04:29:00,
2013-03-01 23:34:00,27.0,24.5,29.14,NNE,23,7.0,7.0,90,0.00,,,0.00,Wunderground v.1.15,2013-03-02 04:34:00,
2013-03-01 23:44:00,27.1,24.6,29.14,NNE,22,6.0,7.0,90,0.00,,,0.00,Wunderground v.1.15,2013-03-02 04:44:00,
2013-03-01 23:49:00,27.2,24.9,29.14,NNE,25,5.0,5.0,91,0.00,,,0.00,Wunderground v.1.15,2013-03-02 04:49:00,
2013-03-01 23:54:00,27.3,25.0,29.13,NNE,25,4.0,7.0,91,0.00,,,0.00,Wunderground v.1.15,2013-03-02 04:54:00,